sensor_id;sensor_type;location;lat;lon;timestamp;pressure;altitude;pressure_sealevel;temperature;humidity
59493;BME280;45497;43.996;22.876;2023-02-28T00:00:48;102094.78;;;7.38;54.77
59493;BME280;45497;43.996;22.876;2023-02-28T00:03:14;102094.88;;;7.25;55.03
59493;BME280;45497;43.996;22.876;2023-02-28T00:05:39;102110.44;;;7.17;55.21
59493;BME280;45497;43.996;22.876;2023-02-28T00:08:06;102113.06;;;7.17;55.20
59493;BME280;45497;43.996;22.876;2023-02-28T00:10:32;102119.06;;;7.19;55.19
59493;BME280;45497;43.996;22.876;2023-02-28T00:13:04;102112.16;;;7.05;55.54
59493;BME280;45497;43.996;22.876;2023-02-28T00:15:30;102128.19;;;7.02;55.87
59493;BME280;45497;43.996;22.876;2023-02-28T00:17:56;102126.06;;;7.07;55.88
59493;BME280;45497;43.996;22.876;2023-02-28T00:20:21;102118.88;;;7.09;55.64
59493;BME280;45497;43.996;22.876;2023-02-28T00:22:49;102122.66;;;6.94;55.91
59493;BME280;45497;43.996;22.876;2023-02-28T00:25:17;102119.66;;;6.74;56.44
59493;BME280;45497;43.996;22.876;2023-02-28T00:27:44;102130.00;;;6.64;56.74
59493;BME280;45497;43.996;22.876;2023-02-28T00:30:12;102127.91;;;6.57;57.09
59493;BME280;45497;43.996;22.876;2023-02-28T00:32:38;102134.25;;;6.54;56.58
59493;BME280;45497;43.996;22.876;2023-02-28T00:35:04;102134.69;;;6.48;56.61
59493;BME280;45497;43.996;22.876;2023-02-28T00:37:30;102140.56;;;6.51;56.37
59493;BME280;45497;43.996;22.876;2023-02-28T00:39:56;102140.56;;;6.51;56.30
59493;BME280;45497;43.996;22.876;2023-02-28T00:42:21;102143.41;;;6.61;56.12
59493;BME280;45497;43.996;22.876;2023-02-28T00:44:47;102139.81;;;6.62;55.87
59493;BME280;45497;43.996;22.876;2023-02-28T00:47:12;102148.44;;;6.64;55.78
59493;BME280;45497;43.996;22.876;2023-02-28T00:49:38;102150.88;;;6.67;55.79
59493;BME280;45497;43.996;22.876;2023-02-28T00:52:03;102148.59;;;6.63;55.83
59493;BME280;45497;43.996;22.876;2023-02-28T00:54:29;102152.81;;;6.53;56.32
59493;BME280;45497;43.996;22.876;2023-02-28T00:56:55;102142.81;;;6.45;56.61
59493;BME280;45497;43.996;22.876;2023-02-28T00:59:20;102148.81;;;6.47;56.73
59493;BME280;45497;43.996;22.876;2023-02-28T01:01:47;102161.03;;;6.35;56.93
59493;BME280;45497;43.996;22.876;2023-02-28T01:04:13;102149.78;;;6.33;57.16
59493;BME280;45497;43.996;22.876;2023-02-28T01:06:38;102150.50;;;6.22;57.23
59493;BME280;45497;43.996;22.876;2023-02-28T01:09:05;102147.69;;;6.25;57.13
59493;BME280;45497;43.996;22.876;2023-02-28T01:11:31;102143.47;;;6.36;57.27
59493;BME280;45497;43.996;22.876;2023-02-28T01:13:57;102139.56;;;6.41;56.93
59493;BME280;45497;43.996;22.876;2023-02-28T01:16:22;102136.81;;;6.43;56.99
59493;BME280;45497;43.996;22.876;2023-02-28T01:18:48;102138.59;;;6.42;57.19
59493;BME280;45497;43.996;22.876;2023-02-28T01:21:15;102134.50;;;6.38;57.45
59493;BME280;45497;43.996;22.876;2023-02-28T01:23:42;102140.50;;;6.40;57.18
59493;BME280;45497;43.996;22.876;2023-02-28T01:26:16;102133.13;;;6.32;57.24
59493;BME280;45497;43.996;22.876;2023-02-28T01:28:42;102137.03;;;6.40;57.46
59493;BME280;45497;43.996;22.876;2023-02-28T01:31:08;102142.09;;;6.43;57.38
59493;BME280;45497;43.996;22.876;2023-02-28T01:33:34;102147.22;;;6.44;57.63
59493;BME280;45497;43.996;22.876;2023-02-28T01:36:01;102142.28;;;6.53;57.35
59493;BME280;45497;43.996;22.876;2023-02-28T01:38:27;102147.81;;;6.61;57.41
59493;BME280;45497;43.996;22.876;2023-02-28T01:40:53;102150.97;;;6.66;57.08
59493;BME280;45497;43.996;22.876;2023-02-28T01:45:49;102151.25;;;6.50;57.68
59493;BME280;45497;43.996;22.876;2023-02-28T01:48:15;102149.53;;;6.62;57.45
59493;BME280;45497;43.996;22.876;2023-02-28T01:50:43;102147.81;;;6.74;57.18
59493;BME280;45497;43.996;22.876;2023-02-28T01:53:21;102153.09;;;6.61;57.28
59493;BME280;45497;43.996;22.876;2023-02-28T01:55:49;102152.09;;;6.50;57.92
59493;BME280;45497;43.996;22.876;2023-02-28T01:58:17;102145.84;;;6.51;57.64
59493;BME280;45497;43.996;22.876;2023-02-28T02:00:43;102152.22;;;6.73;57.87
59493;BME280;45497;43.996;22.876;2023-02-28T02:03:11;102151.28;;;6.74;57.30
59493;BME280;45497;43.996;22.876;2023-02-28T02:05:39;102153.22;;;6.59;57.48
59493;BME280;45497;43.996;22.876;2023-02-28T02:08:08;102160.72;;;6.53;57.98
59493;BME280;45497;43.996;22.876;2023-02-28T02:10:39;102155.25;;;6.43;58.07
59493;BME280;45497;43.996;22.876;2023-02-28T02:26:37;102141.25;;;6.29;58.28
59493;BME280;45497;43.996;22.876;2023-02-28T02:29:14;102153.34;;;6.19;58.46
59493;BME280;45497;43.996;22.876;2023-02-28T02:37:11;102145.22;;;6.35;58.67
59493;BME280;45497;43.996;22.876;2023-02-28T02:40:02;102148.41;;;6.40;58.37
59493;BME280;45497;43.996;22.876;2023-02-28T02:42:54;102154.06;;;6.60;57.72
59493;BME280;45497;43.996;22.876;2023-02-28T02:46:33;102150.16;;;6.65;57.38
59493;BME280;45497;43.996;22.876;2023-02-28T02:48:30;102148.13;;;6.69;57.25
59493;BME280;45497;43.996;22.876;2023-02-28T02:51:01;102127.41;;;6.51;57.42
59493;BME280;45497;43.996;22.876;2023-02-28T02:53:32;102130.28;;;6.48;57.73
59493;BME280;45497;43.996;22.876;2023-02-28T02:55:59;102124.78;;;6.39;58.23
59493;BME280;45497;43.996;22.876;2023-02-28T02:58:30;102133.97;;;6.33;58.32
59493;BME280;45497;43.996;22.876;2023-02-28T03:01:00;102142.44;;;6.12;59.11
59493;BME280;45497;43.996;22.876;2023-02-28T03:03:27;102139.66;;;6.01;59.70
59493;BME280;45497;43.996;22.876;2023-02-28T03:05:57;102141.31;;;5.89;59.74
59493;BME280;45497;43.996;22.876;2023-02-28T03:08:23;102155.78;;;5.97;60.06
59493;BME280;45497;43.996;22.876;2023-02-28T03:10:57;102158.78;;;5.90;59.91
59493;BME280;45497;43.996;22.876;2023-02-28T03:18:36;102170.41;;;6.13;59.78
59493;BME280;45497;43.996;22.876;2023-02-28T03:21:12;102181.91;;;6.25;59.41
59493;BME280;45497;43.996;22.876;2023-02-28T03:23:48;102174.09;;;6.37;58.83
59493;BME280;45497;43.996;22.876;2023-02-28T03:26:23;102195.19;;;6.37;59.34
59493;BME280;45497;43.996;22.876;2023-02-28T03:29:23;102186.97;;;6.28;59.08
59493;BME280;45497;43.996;22.876;2023-02-28T03:31:55;102203.28;;;6.21;59.61
59493;BME280;45497;43.996;22.876;2023-02-28T03:34:31;102210.53;;;6.17;60.05
59493;BME280;45497;43.996;22.876;2023-02-28T03:37:19;102204.97;;;6.22;60.09
59493;BME280;45497;43.996;22.876;2023-02-28T03:39:52;102215.41;;;6.23;60.09
59493;BME280;45497;43.996;22.876;2023-02-28T03:42:22;102219.94;;;6.21;60.02
59493;BME280;45497;43.996;22.876;2023-02-28T03:45:00;102214.59;;;6.36;59.58
59493;BME280;45497;43.996;22.876;2023-02-28T03:47:54;102207.50;;;6.23;59.94
59493;BME280;45497;43.996;22.876;2023-02-28T03:53:07;102220.03;;;6.20;60.25
59493;BME280;45497;43.996;22.876;2023-02-28T03:55:43;102216.69;;;6.18;60.22
59493;BME280;45497;43.996;22.876;2023-02-28T03:58:24;102216.53;;;6.19;60.11
59493;BME280;45497;43.996;22.876;2023-02-28T04:03:49;102229.63;;;6.34;59.92
59493;BME280;45497;43.996;22.876;2023-02-28T04:06:18;102230.69;;;6.31;59.60
59493;BME280;45497;43.996;22.876;2023-02-28T04:08:45;102222.59;;;6.34;59.53
59493;BME280;45497;43.996;22.876;2023-02-28T04:11:25;102219.50;;;6.40;60.08
59493;BME280;45497;43.996;22.876;2023-02-28T04:13:52;102224.03;;;6.38;59.89
59493;BME280;45497;43.996;22.876;2023-02-28T04:16:18;102229.06;;;6.16;60.55
59493;BME280;45497;43.996;22.876;2023-02-28T04:18:43;102236.97;;;6.16;61.17
59493;BME280;45497;43.996;22.876;2023-02-28T04:21:09;102237.31;;;6.11;60.99
59493;BME280;45497;43.996;22.876;2023-02-28T04:23:35;102237.22;;;6.12;61.42
59493;BME280;45497;43.996;22.876;2023-02-28T04:26:01;102238.03;;;6.26;61.15
59493;BME280;45497;43.996;22.876;2023-02-28T04:28:26;102241.75;;;6.36;61.23
59493;BME280;45497;43.996;22.876;2023-02-28T04:31:00;102239.13;;;6.36;61.50
59493;BME280;45497;43.996;22.876;2023-02-28T04:33:27;102236.16;;;6.28;61.97
59493;BME280;45497;43.996;22.876;2023-02-28T04:36:07;102245.94;;;6.39;61.61
59493;BME280;45497;43.996;22.876;2023-02-28T04:38:35;102238.91;;;6.39;62.00
59493;BME280;45497;43.996;22.876;2023-02-28T04:41:00;102228.06;;;6.31;62.28
59493;BME280;45497;43.996;22.876;2023-02-28T04:43:27;102225.59;;;6.15;63.02
59493;BME280;45497;43.996;22.876;2023-02-28T04:45:54;102226.59;;;6.27;63.42
59493;BME280;45497;43.996;22.876;2023-02-28T04:48:26;102224.59;;;6.30;62.94
59493;BME280;45497;43.996;22.876;2023-02-28T04:50:52;102217.72;;;6.28;63.12
59493;BME280;45497;43.996;22.876;2023-02-28T04:53:18;102223.31;;;6.23;63.59
59493;BME280;45497;43.996;22.876;2023-02-28T04:55:44;102220.97;;;6.31;63.99
59493;BME280;45497;43.996;22.876;2023-02-28T04:58:10;102221.41;;;6.38;63.68
59493;BME280;45497;43.996;22.876;2023-02-28T05:00:35;102227.94;;;6.32;64.29
59493;BME280;45497;43.996;22.876;2023-02-28T05:03:01;102234.38;;;6.28;64.63
59493;BME280;45497;43.996;22.876;2023-02-28T05:05:26;102236.16;;;6.28;64.44
59493;BME280;45497;43.996;22.876;2023-02-28T05:07:52;102234.88;;;6.34;64.68
59493;BME280;45497;43.996;22.876;2023-02-28T05:10:19;102226.06;;;6.35;64.58
59493;BME280;45497;43.996;22.876;2023-02-28T05:12:44;102234.03;;;6.33;65.08
59493;BME280;45497;43.996;22.876;2023-02-28T05:15:14;102231.94;;;6.38;65.05
59493;BME280;45497;43.996;22.876;2023-02-28T05:17:40;102241.31;;;6.42;65.09
59493;BME280;45497;43.996;22.876;2023-02-28T05:20:08;102242.91;;;6.45;65.25
59493;BME280;45497;43.996;22.876;2023-02-28T05:22:36;102249.75;;;6.47;65.10
59493;BME280;45497;43.996;22.876;2023-02-28T05:25:03;102254.72;;;6.39;65.45
59493;BME280;45497;43.996;22.876;2023-02-28T05:27:30;102253.66;;;6.29;66.53
59493;BME280;45497;43.996;22.876;2023-02-28T05:29:56;102263.09;;;6.06;67.19
59493;BME280;45497;43.996;22.876;2023-02-28T05:32:21;102271.72;;;6.08;67.16
59493;BME280;45497;43.996;22.876;2023-02-28T05:34:47;102278.34;;;6.01;67.72
59493;BME280;45497;43.996;22.876;2023-02-28T05:37:13;102269.44;;;5.89;67.52
59493;BME280;45497;43.996;22.876;2023-02-28T05:39:39;102277.53;;;5.86;67.90
59493;BME280;45497;43.996;22.876;2023-02-28T05:42:05;102277.50;;;5.73;67.89
59493;BME280;45497;43.996;22.876;2023-02-28T05:44:31;102287.41;;;5.82;68.08
59493;BME280;45497;43.996;22.876;2023-02-28T05:46:57;102283.41;;;5.77;68.13
59493;BME280;45497;43.996;22.876;2023-02-28T05:49:22;102288.94;;;5.72;68.32
59493;BME280;45497;43.996;22.876;2023-02-28T05:51:48;102292.69;;;5.82;67.92
59493;BME280;45497;43.996;22.876;2023-02-28T05:54:13;102285.50;;;5.71;68.07
59493;BME280;45497;43.996;22.876;2023-02-28T05:56:39;102283.78;;;5.98;67.46
59493;BME280;45497;43.996;22.876;2023-02-28T05:59:06;102286.78;;;6.06;67.26
59493;BME280;45497;43.996;22.876;2023-02-28T06:03:59;102293.66;;;5.94;67.26
59493;BME280;45497;43.996;22.876;2023-02-28T06:06:25;102300.78;;;5.79;67.85
59493;BME280;45497;43.996;22.876;2023-02-28T06:08:51;102311.16;;;5.95;67.54
59493;BME280;45497;43.996;22.876;2023-02-28T06:11:16;102306.38;;;6.02;67.27
59493;BME280;45497;43.996;22.876;2023-02-28T06:13:42;102311.94;;;6.10;67.15
59493;BME280;45497;43.996;22.876;2023-02-28T06:16:10;102308.28;;;6.12;67.26
59493;BME280;45497;43.996;22.876;2023-02-28T06:18:36;102305.34;;;6.17;66.83
59493;BME280;45497;43.996;22.876;2023-02-28T06:21:01;102312.09;;;6.21;66.96
59493;BME280;45497;43.996;22.876;2023-02-28T06:23:27;102321.16;;;6.30;66.41
59493;BME280;45497;43.996;22.876;2023-02-28T06:25:52;102307.31;;;6.13;67.22
59493;BME280;45497;43.996;22.876;2023-02-28T06:28:18;102308.50;;;5.95;67.64
59493;BME280;45497;43.996;22.876;2023-02-28T06:30:44;102311.06;;;5.69;68.41
59493;BME280;45497;43.996;22.876;2023-02-28T06:33:09;102313.00;;;5.80;67.97
59493;BME280;45497;43.996;22.876;2023-02-28T06:35:35;102325.31;;;5.65;67.73
59493;BME280;45497;43.996;22.876;2023-02-28T06:38:00;102318.41;;;5.64;68.00
59493;BME280;45497;43.996;22.876;2023-02-28T06:40:26;102331.31;;;5.96;67.30
59493;BME280;45497;43.996;22.876;2023-02-28T06:42:51;102337.59;;;5.79;67.31
59493;BME280;45497;43.996;22.876;2023-02-28T06:45:17;102333.53;;;5.61;67.86
59493;BME280;45497;43.996;22.876;2023-02-28T06:47:43;102335.38;;;5.73;67.89
59493;BME280;45497;43.996;22.876;2023-02-28T06:50:11;102334.44;;;5.74;67.88
59493;BME280;45497;43.996;22.876;2023-02-28T06:52:37;102331.97;;;5.85;67.57
59493;BME280;45497;43.996;22.876;2023-02-28T06:55:05;102334.69;;;5.84;67.59
59493;BME280;45497;43.996;22.876;2023-02-28T06:57:31;102345.97;;;5.86;67.61
59493;BME280;45497;43.996;22.876;2023-02-28T07:00:04;102342.28;;;5.88;67.60
59493;BME280;45497;43.996;22.876;2023-02-28T07:02:31;102349.50;;;5.99;67.30
59493;BME280;45497;43.996;22.876;2023-02-28T07:04:56;102341.97;;;6.07;66.83
59493;BME280;45497;43.996;22.876;2023-02-28T07:07:22;102338.81;;;6.15;66.60
59493;BME280;45497;43.996;22.876;2023-02-28T07:09:47;102340.38;;;5.90;67.22
59493;BME280;45497;43.996;22.876;2023-02-28T07:12:13;102343.97;;;5.89;67.10
59493;BME280;45497;43.996;22.876;2023-02-28T07:14:38;102347.84;;;5.84;67.53
59493;BME280;45497;43.996;22.876;2023-02-28T07:17:06;102349.97;;;5.91;67.32
59493;BME280;45497;43.996;22.876;2023-02-28T07:19:32;102350.25;;;6.01;67.07
59493;BME280;45497;43.996;22.876;2023-02-28T07:21:57;102349.50;;;5.99;67.09
59493;BME280;45497;43.996;22.876;2023-02-28T07:24:23;102346.47;;;5.78;68.01
59493;BME280;45497;43.996;22.876;2023-02-28T07:26:51;102352.91;;;5.87;67.97
59493;BME280;45497;43.996;22.876;2023-02-28T07:29:16;102353.44;;;5.92;67.39
59493;BME280;45497;43.996;22.876;2023-02-28T07:31:42;102346.56;;;5.77;67.99
59493;BME280;45497;43.996;22.876;2023-02-28T07:34:07;102351.50;;;5.81;67.99
59493;BME280;45497;43.996;22.876;2023-02-28T07:36:32;102341.16;;;5.92;67.48
59493;BME280;45497;43.996;22.876;2023-02-28T07:38:58;102357.03;;;5.91;68.28
59493;BME280;45497;43.996;22.876;2023-02-28T07:41:25;102348.69;;;5.99;67.29
59493;BME280;45497;43.996;22.876;2023-02-28T07:43:55;102352.59;;;6.06;67.32
59493;BME280;45497;43.996;22.876;2023-02-28T07:46:22;102350.16;;;5.88;68.09
59493;BME280;45497;43.996;22.876;2023-02-28T07:48:48;102356.94;;;6.07;67.75
59493;BME280;45497;43.996;22.876;2023-02-28T07:51:14;102364.00;;;6.19;67.08
59493;BME280;45497;43.996;22.876;2023-02-28T07:53:39;102374.75;;;6.16;66.96
59493;BME280;45497;43.996;22.876;2023-02-28T07:56:05;102372.72;;;6.07;67.03
59493;BME280;45497;43.996;22.876;2023-02-28T07:58:31;102383.09;;;5.96;67.61
59493;BME280;45497;43.996;22.876;2023-02-28T08:00:57;102386.28;;;5.86;68.14
59493;BME280;45497;43.996;22.876;2023-02-28T08:03:29;102381.03;;;6.13;67.64
59493;BME280;45497;43.996;22.876;2023-02-28T08:05:55;102384.97;;;6.21;66.69
59493;BME280;45497;43.996;22.876;2023-02-28T08:08:20;102382.91;;;5.99;67.49
59493;BME280;45497;43.996;22.876;2023-02-28T08:10:45;102377.72;;;5.97;67.38
59493;BME280;45497;43.996;22.876;2023-02-28T08:13:11;102374.81;;;6.02;67.84
59493;BME280;45497;43.996;22.876;2023-02-28T08:15:36;102387.06;;;5.74;68.30
59493;BME280;45497;43.996;22.876;2023-02-28T08:18:02;102394.53;;;5.94;67.57
59493;BME280;45497;43.996;22.876;2023-02-28T08:20:27;102383.28;;;5.92;67.71
59493;BME280;45497;43.996;22.876;2023-02-28T08:22:53;102391.84;;;5.96;67.45
59493;BME280;45497;43.996;22.876;2023-02-28T08:25:19;102385.63;;;5.97;67.65
59493;BME280;45497;43.996;22.876;2023-02-28T08:27:45;102386.72;;;5.66;68.64
59493;BME280;45497;43.996;22.876;2023-02-28T08:30:12;102391.75;;;5.69;68.48
59493;BME280;45497;43.996;22.876;2023-02-28T08:32:38;102391.91;;;5.53;68.66
59493;BME280;45497;43.996;22.876;2023-02-28T08:35:04;102389.34;;;5.66;68.69
59493;BME280;45497;43.996;22.876;2023-02-28T08:37:30;102389.03;;;5.70;68.51
59493;BME280;45497;43.996;22.876;2023-02-28T08:39:56;102395.03;;;5.72;68.72
59493;BME280;45497;43.996;22.876;2023-02-28T08:42:21;102390.19;;;5.66;68.52
59493;BME280;45497;43.996;22.876;2023-02-28T08:44:47;102380.94;;;5.73;68.60
59493;BME280;45497;43.996;22.876;2023-02-28T08:47:13;102388.34;;;5.96;68.13
59493;BME280;45497;43.996;22.876;2023-02-28T08:49:38;102390.84;;;6.11;67.82
59493;BME280;45497;43.996;22.876;2023-02-28T08:52:04;102396.09;;;6.11;67.61
59493;BME280;45497;43.996;22.876;2023-02-28T08:54:29;102401.13;;;5.87;68.13
59493;BME280;45497;43.996;22.876;2023-02-28T08:56:57;102396.59;;;6.04;68.32
59493;BME280;45497;43.996;22.876;2023-02-28T08:59:22;102388.16;;;5.99;67.93
59493;BME280;45497;43.996;22.876;2023-02-28T09:01:48;102404.31;;;5.92;68.30
59493;BME280;45497;43.996;22.876;2023-02-28T09:04:13;102403.50;;;5.78;68.92
59493;BME280;45497;43.996;22.876;2023-02-28T09:06:39;102409.50;;;5.80;69.00
59493;BME280;45497;43.996;22.876;2023-02-28T09:09:04;102413.00;;;5.80;68.54
59493;BME280;45497;43.996;22.876;2023-02-28T09:11:32;102410.16;;;5.98;68.49
59493;BME280;45497;43.996;22.876;2023-02-28T09:13:58;102404.50;;;5.89;68.82
59493;BME280;45497;43.996;22.876;2023-02-28T09:16:25;102394.34;;;5.83;68.75
59493;BME280;45497;43.996;22.876;2023-02-28T09:18:51;102392.28;;;6.30;69.70
59493;BME280;45497;43.996;22.876;2023-02-28T09:21:18;102389.28;;;6.49;68.06
59493;BME280;45497;43.996;22.876;2023-02-28T09:23:46;102404.72;;;6.41;68.06
59493;BME280;45497;43.996;22.876;2023-02-28T09:26:21;102399.69;;;6.38;68.19
59493;BME280;45497;43.996;22.876;2023-02-28T09:28:47;102399.34;;;6.29;67.54
59493;BME280;45497;43.996;22.876;2023-02-28T09:31:15;102383.50;;;6.17;67.69
59493;BME280;45497;43.996;22.876;2023-02-28T09:33:41;102376.28;;;6.06;68.16
59493;BME280;45497;43.996;22.876;2023-02-28T09:36:07;102388.94;;;6.13;68.11
59493;BME280;45497;43.996;22.876;2023-02-28T09:38:32;102395.22;;;6.25;67.75
59493;BME280;45497;43.996;22.876;2023-02-28T09:41:19;102401.16;;;6.42;67.14
59493;BME280;45497;43.996;22.876;2023-02-28T09:43:49;102398.53;;;6.42;67.50
59493;BME280;45497;43.996;22.876;2023-02-28T09:48:51;102392.53;;;6.12;67.65
59493;BME280;45497;43.996;22.876;2023-02-28T09:54:24;102404.59;;;6.29;67.58
59493;BME280;45497;43.996;22.876;2023-02-28T09:57:06;102393.59;;;6.23;67.61
59493;BME280;45497;43.996;22.876;2023-02-28T10:02:19;102387.56;;;6.08;67.71
59493;BME280;45497;43.996;22.876;2023-02-28T10:04:56;102401.69;;;6.07;67.95
59493;BME280;45497;43.996;22.876;2023-02-28T10:10:22;102398.84;;;6.10;68.10
59493;BME280;45497;43.996;22.876;2023-02-28T10:12:53;102403.22;;;6.24;67.93
59493;BME280;45497;43.996;22.876;2023-02-28T10:15:22;102406.69;;;6.24;67.73
59493;BME280;45497;43.996;22.876;2023-02-28T10:17:54;102412.81;;;6.25;67.42
59493;BME280;45497;43.996;22.876;2023-02-28T10:20:21;102424.31;;;6.09;67.91
59493;BME280;45497;43.996;22.876;2023-02-28T10:23:19;102410.66;;;6.17;67.84
59493;BME280;45497;43.996;22.876;2023-02-28T10:25:50;102423.91;;;6.16;67.87
59493;BME280;45497;43.996;22.876;2023-02-28T10:28:18;102422.09;;;6.03;67.88
59493;BME280;45497;43.996;22.876;2023-02-28T10:30:46;102421.41;;;6.14;67.79
59493;BME280;45497;43.996;22.876;2023-02-28T10:33:33;102412.88;;;6.10;67.74
59493;BME280;45497;43.996;22.876;2023-02-28T10:36:03;102423.97;;;6.01;68.14
59493;BME280;45497;43.996;22.876;2023-02-28T10:38:37;102412.09;;;6.08;68.28
59493;BME280;45497;43.996;22.876;2023-02-28T10:41:17;102416.03;;;6.16;68.15
59493;BME280;45497;43.996;22.876;2023-02-28T10:43:51;102415.59;;;6.36;67.17
59493;BME280;45497;43.996;22.876;2023-02-28T10:46:19;102410.47;;;6.20;67.79
59493;BME280;45497;43.996;22.876;2023-02-28T10:49:02;102404.31;;;6.34;67.44
59493;BME280;45497;43.996;22.876;2023-02-28T10:51:38;102400.44;;;6.40;67.00
59493;BME280;45497;43.996;22.876;2023-02-28T10:54:04;102402.97;;;6.14;67.99
59493;BME280;45497;43.996;22.876;2023-02-28T10:56:31;102413.16;;;6.33;67.61
59493;BME280;45497;43.996;22.876;2023-02-28T11:01:43;102408.94;;;6.30;67.40
59493;BME280;45497;43.996;22.876;2023-02-28T11:04:31;102401.09;;;6.16;68.19
59493;BME280;45497;43.996;22.876;2023-02-28T11:07:26;102386.31;;;6.13;67.59
59493;BME280;45497;43.996;22.876;2023-02-28T11:09:52;102379.59;;;6.22;67.89
59493;BME280;45497;43.996;22.876;2023-02-28T11:12:39;102375.34;;;6.34;67.94
59493;BME280;45497;43.996;22.876;2023-02-28T11:15:23;102371.53;;;6.25;68.17
59493;BME280;45497;43.996;22.876;2023-02-28T11:20:59;102368.50;;;6.44;67.26
59493;BME280;45497;43.996;22.876;2023-02-28T11:23:28;102360.38;;;6.35;67.96
59493;BME280;45497;43.996;22.876;2023-02-28T11:25:58;102362.06;;;6.36;67.82
59493;BME280;45497;43.996;22.876;2023-02-28T11:28:29;102371.44;;;6.40;68.13
59493;BME280;45497;43.996;22.876;2023-02-28T11:33:50;102368.53;;;6.57;67.41
59493;BME280;45497;43.996;22.876;2023-02-28T11:36:18;102373.28;;;6.65;67.04
59493;BME280;45497;43.996;22.876;2023-02-28T11:38:44;102363.09;;;6.33;67.86
59493;BME280;45497;43.996;22.876;2023-02-28T11:52:01;102353.94;;;6.39;67.12
59493;BME280;45497;43.996;22.876;2023-02-28T11:54:35;102350.13;;;6.30;67.57
59493;BME280;45497;43.996;22.876;2023-02-28T12:00:26;102348.41;;;6.56;67.06
59493;BME280;45497;43.996;22.876;2023-02-28T12:08:59;102348.69;;;6.39;67.73
59493;BME280;45497;43.996;22.876;2023-02-28T12:11:50;102355.66;;;6.53;67.14
59493;BME280;45497;43.996;22.876;2023-02-28T12:28:04;102366.31;;;6.77;66.54
59493;BME280;45497;43.996;22.876;2023-02-28T12:30:32;102368.03;;;6.65;66.87
59493;BME280;45497;43.996;22.876;2023-02-28T12:33:08;102360.41;;;6.60;66.91
59493;BME280;45497;43.996;22.876;2023-02-28T12:35:43;102359.50;;;6.74;66.53
59493;BME280;45497;43.996;22.876;2023-02-28T12:38:26;102355.69;;;6.91;66.31
59493;BME280;45497;43.996;22.876;2023-02-28T12:41:05;102355.47;;;6.81;66.54
59493;BME280;45497;43.996;22.876;2023-02-28T12:43:47;102351.88;;;6.57;67.34
59493;BME280;45497;43.996;22.876;2023-02-28T12:51:08;102340.81;;;6.64;67.15
59493;BME280;45497;43.996;22.876;2023-02-28T12:53:54;102341.66;;;6.65;67.11
59493;BME280;45497;43.996;22.876;2023-02-28T12:56:30;102337.44;;;6.75;67.20
59493;BME280;45497;43.996;22.876;2023-02-28T12:59:12;102338.72;;;6.69;67.12
59493;BME280;45497;43.996;22.876;2023-02-28T13:07:24;102333.66;;;7.05;66.26
59493;BME280;45497;43.996;22.876;2023-02-28T13:09:56;102338.94;;;6.92;66.13
59493;BME280;45497;43.996;22.876;2023-02-28T13:12:23;102333.56;;;6.94;66.12
59493;BME280;45497;43.996;22.876;2023-02-28T13:14:50;102332.69;;;6.80;66.10
59493;BME280;45497;43.996;22.876;2023-02-28T13:17:20;102327.31;;;6.69;66.81
59493;BME280;45497;43.996;22.876;2023-02-28T13:19:55;102333.75;;;6.78;66.53
59493;BME280;45497;43.996;22.876;2023-02-28T13:24:51;102335.97;;;6.84;66.35
59493;BME280;45497;43.996;22.876;2023-02-28T13:27:24;102326.69;;;6.78;66.33
59493;BME280;45497;43.996;22.876;2023-02-28T13:29:56;102321.13;;;6.70;66.70
59493;BME280;45497;43.996;22.876;2023-02-28T13:32:33;102329.66;;;6.74;66.50
59493;BME280;45497;43.996;22.876;2023-02-28T13:39:52;102319.53;;;6.67;66.66
59493;BME280;45497;43.996;22.876;2023-02-28T14:01:16;102308.56;;;6.61;66.56
59493;BME280;45497;43.996;22.876;2023-02-28T14:04:02;102312.34;;;6.69;66.39
59493;BME280;45497;43.996;22.876;2023-02-28T14:06:37;102307.28;;;6.41;67.05
59493;BME280;45497;43.996;22.876;2023-02-28T14:09:23;102317.97;;;6.65;66.93
59493;BME280;45497;43.996;22.876;2023-02-28T14:11:50;102310.34;;;6.73;66.14
59493;BME280;45497;43.996;22.876;2023-02-28T14:17:00;102306.78;;;6.61;66.10
59493;BME280;45497;43.996;22.876;2023-02-28T14:19:29;102295.41;;;6.74;66.01
59493;BME280;45497;43.996;22.876;2023-02-28T14:24:59;102304.25;;;6.73;65.98
59493;BME280;45497;43.996;22.876;2023-02-28T14:35:39;102299.41;;;6.66;66.18
59493;BME280;45497;43.996;22.876;2023-02-28T14:38:16;102297.28;;;6.59;66.42
59493;BME280;45497;43.996;22.876;2023-02-28T14:40:44;102298.78;;;6.63;66.71
59493;BME280;45497;43.996;22.876;2023-02-28T14:43:28;102301.81;;;6.69;66.24
59493;BME280;45497;43.996;22.876;2023-02-28T14:45:57;102307.72;;;6.60;66.76
59493;BME280;45497;43.996;22.876;2023-02-28T14:48:24;102302.97;;;6.53;66.93
59493;BME280;45497;43.996;22.876;2023-02-28T14:50:53;102300.03;;;6.57;66.70
59493;BME280;45497;43.996;22.876;2023-02-28T14:53:22;102307.81;;;6.59;66.69
59493;BME280;45497;43.996;22.876;2023-02-28T14:55:49;102291.50;;;6.66;66.59
59493;BME280;45497;43.996;22.876;2023-02-28T15:00:51;102291.38;;;6.81;66.28
59493;BME280;45497;43.996;22.876;2023-02-28T15:05:58;102301.28;;;6.64;66.72
59493;BME280;45497;43.996;22.876;2023-02-28T15:08:25;102304.03;;;6.63;66.92
59493;BME280;45497;43.996;22.876;2023-02-28T15:11:00;102306.44;;;6.66;66.54
59493;BME280;45497;43.996;22.876;2023-02-28T15:13:46;102308.78;;;6.70;66.77
59493;BME280;45497;43.996;22.876;2023-02-28T15:16:18;102310.88;;;6.53;66.92
59493;BME280;45497;43.996;22.876;2023-02-28T15:21:24;102316.16;;;6.78;66.39
59493;BME280;45497;43.996;22.876;2023-02-28T15:23:55;102320.16;;;6.71;66.51
59493;BME280;45497;43.996;22.876;2023-02-28T15:26:26;102306.44;;;6.66;66.75
59493;BME280;45497;43.996;22.876;2023-02-28T15:28:58;102313.50;;;6.78;66.54